sensor_id;sensor_type;location;lat;lon;timestamp;P1;durP1;ratioP1;P2;durP2;ratioP2
34573;SDS011;20809;49.594;8.734;2023-03-31T00:00:37;5.97;;;1.02;;
34573;SDS011;20809;49.594;8.734;2023-03-31T00:03:37;4.45;;;1.17;;
34573;SDS011;20809;49.594;8.734;2023-03-31T00:06:42;6.72;;;1.13;;
34573;SDS011;20809;49.594;8.734;2023-03-31T00:09:43;6.00;;;1.33;;
34573;SDS011;20809;49.594;8.734;2023-03-31T00:12:45;4.55;;;1.63;;
34573;SDS011;20809;49.594;8.734;2023-03-31T00:15:46;8.73;;;2.45;;
34573;SDS011;20809;49.594;8.734;2023-03-31T00:18:47;4.07;;;0.93;;
34573;SDS011;20809;49.594;8.734;2023-03-31T00:21:49;5.22;;;1.35;;
34573;SDS011;20809;49.594;8.734;2023-03-31T00:24:50;9.93;;;2.75;;
34573;SDS011;20809;49.594;8.734;2023-03-31T00:27:51;4.88;;;1.80;;
34573;SDS011;20809;49.594;8.734;2023-03-31T00:30:52;6.47;;;1.38;;
34573;SDS011;20809;49.594;8.734;2023-03-31T00:33:58;5.15;;;1.50;;
34573;SDS011;20809;49.594;8.734;2023-03-31T00:36:59;5.75;;;1.58;;
34573;SDS011;20809;49.594;8.734;2023-03-31T00:40:01;9.10;;;1.02;;
34573;SDS011;20809;49.594;8.734;2023-03-31T00:43:20;6.67;;;1.60;;
34573;SDS011;20809;49.594;8.734;2023-03-31T00:49:47;6.20;;;1.63;;
34573;SDS011;20809;49.594;8.734;2023-03-31T00:52:54;4.68;;;1.23;;
34573;SDS011;20809;49.594;8.734;2023-03-31T00:59:13;5.10;;;1.65;;
34573;SDS011;20809;49.594;8.734;2023-03-31T01:02:14;13.45;;;2.25;;
34573;SDS011;20809;49.594;8.734;2023-03-31T01:05:21;7.88;;;1.50;;
34573;SDS011;20809;49.594;8.734;2023-03-31T01:08:25;4.00;;;1.45;;
34573;SDS011;20809;49.594;8.734;2023-03-31T01:11:27;8.07;;;1.08;;
34573;SDS011;20809;49.594;8.734;2023-03-31T01:14:30;9.70;;;1.35;;
34573;SDS011;20809;49.594;8.734;2023-03-31T01:30:57;6.57;;;1.70;;
34573;SDS011;20809;49.594;8.734;2023-03-31T01:47:27;6.47;;;1.10;;
34573;SDS011;20809;49.594;8.734;2023-03-31T01:53:59;7.88;;;1.50;;
34573;SDS011;20809;49.594;8.734;2023-03-31T01:57:31;7.85;;;1.40;;
34573;SDS011;20809;49.594;8.734;2023-03-31T02:00:37;3.60;;;1.40;;
34573;SDS011;20809;49.594;8.734;2023-03-31T02:10:41;4.88;;;1.60;;
34573;SDS011;20809;49.594;8.734;2023-03-31T02:13:44;8.70;;;1.40;;
34573;SDS011;20809;49.594;8.734;2023-03-31T02:16:49;5.97;;;1.40;;
34573;SDS011;20809;49.594;8.734;2023-03-31T02:19:58;5.53;;;1.02;;
34573;SDS011;20809;49.594;8.734;2023-03-31T02:23:04;4.43;;;1.10;;
34573;SDS011;20809;49.594;8.734;2023-03-31T02:29:11;5.10;;;1.75;;
34573;SDS011;20809;49.594;8.734;2023-03-31T02:32:18;8.75;;;1.40;;
34573;SDS011;20809;49.594;8.734;2023-03-31T02:35:36;6.82;;;1.42;;
34573;SDS011;20809;49.594;8.734;2023-03-31T02:38:53;6.85;;;1.70;;
34573;SDS011;20809;49.594;8.734;2023-03-31T02:41:58;5.63;;;2.10;;
34573;SDS011;20809;49.594;8.734;2023-03-31T02:45:06;5.78;;;1.75;;
34573;SDS011;20809;49.594;8.734;2023-03-31T02:48:37;4.38;;;1.85;;
34573;SDS011;20809;49.594;8.734;2023-03-31T03:02:04;7.60;;;1.55;;
34573;SDS011;20809;49.594;8.734;2023-03-31T03:05:15;7.93;;;1.52;;
34573;SDS011;20809;49.594;8.734;2023-03-31T03:12:31;5.32;;;1.40;;
34573;SDS011;20809;49.594;8.734;2023-03-31T03:15:18;10.00;;;1.90;;
34573;SDS011;20809;49.594;8.734;2023-03-31T03:18:21;8.23;;;1.80;;
34573;SDS011;20809;49.594;8.734;2023-03-31T03:21:22;6.90;;;1.48;;
34573;SDS011;20809;49.594;8.734;2023-03-31T03:24:23;9.73;;;2.67;;
34573;SDS011;20809;49.594;8.734;2023-03-31T03:27:28;5.15;;;1.00;;
34573;SDS011;20809;49.594;8.734;2023-03-31T03:30:29;7.00;;;3.15;;
34573;SDS011;20809;49.594;8.734;2023-03-31T03:33:30;4.03;;;1.67;;
34573;SDS011;20809;49.594;8.734;2023-03-31T03:36:31;4.90;;;1.20;;
34573;SDS011;20809;49.594;8.734;2023-03-31T03:42:33;4.03;;;1.20;;
34573;SDS011;20809;49.594;8.734;2023-03-31T03:48:34;4.50;;;1.17;;
34573;SDS011;20809;49.594;8.734;2023-03-31T03:51:35;8.55;;;2.25;;
34573;SDS011;20809;49.594;8.734;2023-03-31T03:54:36;3.65;;;1.17;;
34573;SDS011;20809;49.594;8.734;2023-03-31T03:57:37;8.07;;;1.10;;
34573;SDS011;20809;49.594;8.734;2023-03-31T04:00:37;4.13;;;0.90;;
34573;SDS011;20809;49.594;8.734;2023-03-31T04:03:38;7.07;;;1.27;;
34573;SDS011;20809;49.594;8.734;2023-03-31T04:06:39;3.30;;;1.33;;
34573;SDS011;20809;49.594;8.734;2023-03-31T04:09:41;2.58;;;0.90;;
34573;SDS011;20809;49.594;8.734;2023-03-31T04:15:42;4.33;;;1.17;;
34573;SDS011;20809;49.594;8.734;2023-03-31T04:18:46;4.32;;;0.80;;
34573;SDS011;20809;49.594;8.734;2023-03-31T04:24:57;13.10;;;2.75;;
34573;SDS011;20809;49.594;8.734;2023-03-31T04:27:58;8.68;;;1.42;;
34573;SDS011;20809;49.594;8.734;2023-03-31T04:31:02;6.05;;;1.48;;
34573;SDS011;20809;49.594;8.734;2023-03-31T04:34:05;4.35;;;1.85;;
34573;SDS011;20809;49.594;8.734;2023-03-31T04:37:06;4.40;;;1.10;;
34573;SDS011;20809;49.594;8.734;2023-03-31T04:40:09;3.63;;;1.40;;
34573;SDS011;20809;49.594;8.734;2023-03-31T04:46:11;5.93;;;1.20;;
34573;SDS011;20809;49.594;8.734;2023-03-31T04:49:12;6.05;;;1.13;;
34573;SDS011;20809;49.594;8.734;2023-03-31T04:52:13;5.28;;;1.60;;
34573;SDS011;20809;49.594;8.734;2023-03-31T04:55:14;3.42;;;1.30;;
34573;SDS011;20809;49.594;8.734;2023-03-31T04:58:15;13.23;;;1.95;;
34573;SDS011;20809;49.594;8.734;2023-03-31T05:01:16;5.50;;;1.50;;
34573;SDS011;20809;49.594;8.734;2023-03-31T05:04:20;5.90;;;1.20;;
34573;SDS011;20809;49.594;8.734;2023-03-31T05:07:20;4.80;;;1.20;;
34573;SDS011;20809;49.594;8.734;2023-03-31T05:10:21;9.52;;;1.90;;
34573;SDS011;20809;49.594;8.734;2023-03-31T05:13:23;5.35;;;1.08;;
34573;SDS011;20809;49.594;8.734;2023-03-31T05:16:23;3.58;;;1.20;;
34573;SDS011;20809;49.594;8.734;2023-03-31T05:19:24;4.30;;;2.10;;
34573;SDS011;20809;49.594;8.734;2023-03-31T05:22:26;5.93;;;1.30;;
34573;SDS011;20809;49.594;8.734;2023-03-31T05:25:27;9.02;;;2.47;;
34573;SDS011;20809;49.594;8.734;2023-03-31T05:28:31;5.35;;;1.45;;
34573;SDS011;20809;49.594;8.734;2023-03-31T05:31:33;9.55;;;1.55;;
34573;SDS011;20809;49.594;8.734;2023-03-31T05:34:33;6.90;;;2.63;;
34573;SDS011;20809;49.594;8.734;2023-03-31T05:37:35;5.30;;;1.80;;
34573;SDS011;20809;49.594;8.734;2023-03-31T05:40:36;9.13;;;2.95;;
34573;SDS011;20809;49.594;8.734;2023-03-31T05:43:37;7.80;;;1.98;;
34573;SDS011;20809;49.594;8.734;2023-03-31T05:49:40;6.95;;;2.33;;
34573;SDS011;20809;49.594;8.734;2023-03-31T05:52:41;4.05;;;2.72;;
34573;SDS011;20809;49.594;8.734;2023-03-31T05:55:42;4.45;;;2.08;;
34573;SDS011;20809;49.594;8.734;2023-03-31T05:58:43;9.23;;;3.00;;
34573;SDS011;20809;49.594;8.734;2023-03-31T06:01:44;7.65;;;2.90;;
34573;SDS011;20809;49.594;8.734;2023-03-31T06:04:45;9.05;;;2.95;;
34573;SDS011;20809;49.594;8.734;2023-03-31T06:07:45;7.35;;;2.30;;
34573;SDS011;20809;49.594;8.734;2023-03-31T06:10:46;11.02;;;2.50;;
34573;SDS011;20809;49.594;8.734;2023-03-31T06:13:47;13.85;;;2.88;;
34573;SDS011;20809;49.594;8.734;2023-03-31T06:16:51;7.60;;;2.78;;
34573;SDS011;20809;49.594;8.734;2023-03-31T06:19:55;10.23;;;4.10;;
34573;SDS011;20809;49.594;8.734;2023-03-31T06:22:55;9.43;;;3.15;;
34573;SDS011;20809;49.594;8.734;2023-03-31T06:26:03;12.38;;;4.95;;
34573;SDS011;20809;49.594;8.734;2023-03-31T06:29:07;7.45;;;3.13;;
34573;SDS011;20809;49.594;8.734;2023-03-31T06:32:08;7.05;;;3.20;;
34573;SDS011;20809;49.594;8.734;2023-03-31T06:35:09;7.32;;;3.35;;
34573;SDS011;20809;49.594;8.734;2023-03-31T06:38:10;5.95;;;3.55;;
34573;SDS011;20809;49.594;8.734;2023-03-31T06:41:11;8.27;;;4.22;;
34573;SDS011;20809;49.594;8.734;2023-03-31T06:44:14;7.15;;;3.58;;
34573;SDS011;20809;49.594;8.734;2023-03-31T06:47:15;11.32;;;4.05;;
34573;SDS011;20809;49.594;8.734;2023-03-31T06:50:16;10.15;;;3.60;;
34573;SDS011;20809;49.594;8.734;2023-03-31T06:53:17;6.97;;;3.30;;
34573;SDS011;20809;49.594;8.734;2023-03-31T06:56:18;7.20;;;3.60;;
34573;SDS011;20809;49.594;8.734;2023-03-31T06:59:21;8.05;;;3.70;;
34573;SDS011;20809;49.594;8.734;2023-03-31T07:02:22;9.88;;;3.75;;
34573;SDS011;20809;49.594;8.734;2023-03-31T07:05:23;6.22;;;3.30;;
34573;SDS011;20809;49.594;8.734;2023-03-31T07:08:28;7.38;;;4.30;;
34573;SDS011;20809;49.594;8.734;2023-03-31T07:11:44;9.00;;;3.53;;
34573;SDS011;20809;49.594;8.734;2023-03-31T07:14:54;10.38;;;3.97;;
34573;SDS011;20809;49.594;8.734;2023-03-31T07:17:58;6.03;;;3.70;;
34573;SDS011;20809;49.594;8.734;2023-03-31T07:21:02;7.85;;;4.38;;
34573;SDS011;20809;49.594;8.734;2023-03-31T07:24:04;8.18;;;3.60;;
34573;SDS011;20809;49.594;8.734;2023-03-31T07:27:23;9.38;;;3.80;;
34573;SDS011;20809;49.594;8.734;2023-03-31T07:30:24;15.20;;;5.38;;
34573;SDS011;20809;49.594;8.734;2023-03-31T07:33:26;6.07;;;3.50;;
34573;SDS011;20809;49.594;8.734;2023-03-31T07:36:27;12.45;;;4.50;;
34573;SDS011;20809;49.594;8.734;2023-03-31T07:39:28;4.28;;;2.80;;
34573;SDS011;20809;49.594;8.734;2023-03-31T07:42:30;5.20;;;3.15;;
34573;SDS011;20809;49.594;8.734;2023-03-31T07:45:32;11.25;;;3.22;;
34573;SDS011;20809;49.594;8.734;2023-03-31T07:48:33;9.43;;;3.97;;
34573;SDS011;20809;49.594;8.734;2023-03-31T07:51:34;5.75;;;3.05;;
34573;SDS011;20809;49.594;8.734;2023-03-31T07:54:35;4.47;;;2.63;;
34573;SDS011;20809;49.594;8.734;2023-03-31T07:57:36;9.20;;;3.13;;
34573;SDS011;20809;49.594;8.734;2023-03-31T08:00:37;6.15;;;4.30;;
34573;SDS011;20809;49.594;8.734;2023-03-31T08:03:38;5.38;;;3.42;;
34573;SDS011;20809;49.594;8.734;2023-03-31T08:06:39;9.05;;;4.47;;
34573;SDS011;20809;49.594;8.734;2023-03-31T08:09:41;6.57;;;5.07;;
34573;SDS011;20809;49.594;8.734;2023-03-31T08:12:44;6.07;;;2.97;;
34573;SDS011;20809;49.594;8.734;2023-03-31T08:15:45;6.43;;;3.17;;
34573;SDS011;20809;49.594;8.734;2023-03-31T08:18:46;7.47;;;2.58;;
34573;SDS011;20809;49.594;8.734;2023-03-31T08:21:47;9.13;;;2.92;;
34573;SDS011;20809;49.594;8.734;2023-03-31T08:24:48;5.97;;;3.50;;
34573;SDS011;20809;49.594;8.734;2023-03-31T08:27:49;5.38;;;2.95;;
34573;SDS011;20809;49.594;8.734;2023-03-31T08:30:52;6.90;;;2.45;;
34573;SDS011;20809;49.594;8.734;2023-03-31T08:33:53;7.60;;;4.05;;
34573;SDS011;20809;49.594;8.734;2023-03-31T08:36:54;4.60;;;1.92;;
34573;SDS011;20809;49.594;8.734;2023-03-31T08:39:56;5.65;;;2.58;;
34573;SDS011;20809;49.594;8.734;2023-03-31T08:43:07;9.10;;;2.92;;
34573;SDS011;20809;49.594;8.734;2023-03-31T08:46:14;8.55;;;5.57;;
34573;SDS011;20809;49.594;8.734;2023-03-31T08:49:18;5.00;;;2.28;;
34573;SDS011;20809;49.594;8.734;2023-03-31T08:52:22;7.88;;;2.97;;
34573;SDS011;20809;49.594;8.734;2023-03-31T08:55:30;6.50;;;2.60;;
34573;SDS011;20809;49.594;8.734;2023-03-31T08:58:44;5.18;;;2.45;;
34573;SDS011;20809;49.594;8.734;2023-03-31T09:09:01;9.55;;;3.53;;
34573;SDS011;20809;49.594;8.734;2023-03-31T09:12:06;10.70;;;4.22;;
34573;SDS011;20809;49.594;8.734;2023-03-31T09:15:13;7.03;;;3.33;;
34573;SDS011;20809;49.594;8.734;2023-03-31T09:18:28;9.55;;;4.38;;
34573;SDS011;20809;49.594;8.734;2023-03-31T09:21:34;7.10;;;4.15;;
34573;SDS011;20809;49.594;8.734;2023-03-31T09:24:44;9.05;;;3.88;;
34573;SDS011;20809;49.594;8.734;2023-03-31T09:27:55;8.40;;;1.90;;
34573;SDS011;20809;49.594;8.734;2023-03-31T09:30:58;6.57;;;1.15;;
34573;SDS011;20809;49.594;8.734;2023-03-31T09:34:04;9.18;;;2.33;;
34573;SDS011;20809;49.594;8.734;2023-03-31T09:37:12;3.38;;;1.50;;
34573;SDS011;20809;49.594;8.734;2023-03-31T09:40:15;9.05;;;1.83;;
34573;SDS011;20809;49.594;8.734;2023-03-31T09:43:22;5.63;;;1.75;;
34573;SDS011;20809;49.594;8.734;2023-03-31T09:46:30;5.85;;;0.93;;
34573;SDS011;20809;49.594;8.734;2023-03-31T09:49:35;5.40;;;1.50;;
34573;SDS011;20809;49.594;8.734;2023-03-31T09:52:48;4.38;;;1.70;;
34573;SDS011;20809;49.594;8.734;2023-03-31T09:55:52;10.40;;;1.35;;
34573;SDS011;20809;49.594;8.734;2023-03-31T09:58:56;5.93;;;1.27;;
34573;SDS011;20809;49.594;8.734;2023-03-31T10:02:16;3.90;;;1.73;;
34573;SDS011;20809;49.594;8.734;2023-03-31T10:05:37;8.32;;;1.25;;
34573;SDS011;20809;49.594;8.734;2023-03-31T10:08:58;6.43;;;2.00;;
34573;SDS011;20809;49.594;8.734;2023-03-31T10:12:03;3.88;;;1.00;;
34573;SDS011;20809;49.594;8.734;2023-03-31T10:15:14;2.50;;;0.80;;
34573;SDS011;20809;49.594;8.734;2023-03-31T10:18:20;4.15;;;0.80;;
34573;SDS011;20809;49.594;8.734;2023-03-31T10:21:35;6.03;;;0.88;;
34573;SDS011;20809;49.594;8.734;2023-03-31T10:24:38;3.58;;;1.17;;
34573;SDS011;20809;49.594;8.734;2023-03-31T10:27:44;5.93;;;1.33;;
34573;SDS011;20809;49.594;8.734;2023-03-31T10:30:49;7.03;;;1.83;;
34573;SDS011;20809;49.594;8.734;2023-03-31T10:33:55;3.75;;;1.10;;
34573;SDS011;20809;49.594;8.734;2023-03-31T10:36:57;4.65;;;1.50;;
34573;SDS011;20809;49.594;8.734;2023-03-31T10:39:59;7.53;;;1.20;;
34573;SDS011;20809;49.594;8.734;2023-03-31T10:46:17;4.82;;;0.88;;
34573;SDS011;20809;49.594;8.734;2023-03-31T10:52:26;6.93;;;2.28;;
34573;SDS011;20809;49.594;8.734;2023-03-31T10:55:30;12.07;;;5.43;;
34573;SDS011;20809;49.594;8.734;2023-03-31T11:02:36;4.93;;;1.30;;
34573;SDS011;20809;49.594;8.734;2023-03-31T11:09:02;4.75;;;1.92;;
34573;SDS011;20809;49.594;8.734;2023-03-31T11:12:10;5.43;;;1.52;;
34573;SDS011;20809;49.594;8.734;2023-03-31T11:41:23;5.47;;;1.30;;
34573;SDS011;20809;49.594;8.734;2023-03-31T11:44:39;4.53;;;1.02;;
34573;SDS011;20809;49.594;8.734;2023-03-31T11:47:53;5.07;;;1.15;;
34573;SDS011;20809;49.594;8.734;2023-03-31T11:50:59;4.95;;;0.82;;
34573;SDS011;20809;49.594;8.734;2023-03-31T11:54:04;4.43;;;1.05;;
34573;SDS011;20809;49.594;8.734;2023-03-31T12:00:33;4.25;;;1.27;;
34573;SDS011;20809;49.594;8.734;2023-03-31T12:07:10;6.43;;;2.13;;
34573;SDS011;20809;49.594;8.734;2023-03-31T12:10:18;4.03;;;0.95;;
34573;SDS011;20809;49.594;8.734;2023-03-31T12:13:33;5.60;;;1.30;;
34573;SDS011;20809;49.594;8.734;2023-03-31T12:16:57;4.53;;;0.77;;
34573;SDS011;20809;49.594;8.734;2023-03-31T12:20:31;4.57;;;1.10;;
34573;SDS011;20809;49.594;8.734;2023-03-31T12:23:42;6.20;;;2.05;;
34573;SDS011;20809;49.594;8.734;2023-03-31T12:26:55;6.85;;;1.17;;
34573;SDS011;20809;49.594;8.734;2023-03-31T12:30:42;11.23;;;2.08;;
34573;SDS011;20809;49.594;8.734;2023-03-31T12:33:42;7.47;;;2.13;;
34573;SDS011;20809;49.594;8.734;2023-03-31T12:40:49;2.92;;;0.93;;
34573;SDS011;20809;49.594;8.734;2023-03-31T12:43:54;3.90;;;1.40;;
34573;SDS011;20809;49.594;8.734;2023-03-31T12:54:06;4.70;;;1.02;;
34573;SDS011;20809;49.594;8.734;2023-03-31T12:57:13;3.47;;;1.20;;
34573;SDS011;20809;49.594;8.734;2023-03-31T13:00:25;5.55;;;1.27;;
34573;SDS011;20809;49.594;8.734;2023-03-31T13:03:42;2.47;;;0.65;;
34573;SDS011;20809;49.594;8.734;2023-03-31T13:06:55;1.98;;;0.77;;
34573;SDS011;20809;49.594;8.734;2023-03-31T13:10:02;3.47;;;1.00;;
34573;SDS011;20809;49.594;8.734;2023-03-31T13:13:26;1.17;;;0.52;;
34573;SDS011;20809;49.594;8.734;2023-03-31T13:16:27;3.95;;;1.02;;
34573;SDS011;20809;49.594;8.734;2023-03-31T13:19:30;2.05;;;0.60;;
34573;SDS011;20809;49.594;8.734;2023-03-31T13:22:35;2.72;;;0.77;;
34573;SDS011;20809;49.594;8.734;2023-03-31T13:25:43;1.77;;;0.50;;
34573;SDS011;20809;49.594;8.734;2023-03-31T13:28:44;3.65;;;0.90;;
34573;SDS011;20809;49.594;8.734;2023-03-31T13:35:05;3.83;;;1.10;;
34573;SDS011;20809;49.594;8.734;2023-03-31T13:38:29;5.57;;;1.92;;
34573;SDS011;20809;49.594;8.734;2023-03-31T13:41:55;3.22;;;0.73;;
34573;SDS011;20809;49.594;8.734;2023-03-31T14:05:54;2.88;;;0.52;;
34573;SDS011;20809;49.594;8.734;2023-03-31T14:09:07;2.67;;;0.80;;
34573;SDS011;20809;49.594;8.734;2023-03-31T14:12:31;2.95;;;0.75;;
34573;SDS011;20809;49.594;8.734;2023-03-31T14:15:34;3.20;;;0.82;;
34573;SDS011;20809;49.594;8.734;2023-03-31T14:18:37;5.03;;;0.93;;
34573;SDS011;20809;49.594;8.734;2023-03-31T14:21:55;3.75;;;0.73;;
34573;SDS011;20809;49.594;8.734;2023-03-31T14:28:22;5.00;;;0.85;;
34573;SDS011;20809;49.594;8.734;2023-03-31T14:37:38;3.53;;;1.30;;
34573;SDS011;20809;49.594;8.734;2023-03-31T14:40:44;1.42;;;0.50;;
34573;SDS011;20809;49.594;8.734;2023-03-31T14:43:48;7.38;;;0.80;;
34573;SDS011;20809;49.594;8.734;2023-03-31T14:46:50;2.83;;;0.52;;
34573;SDS011;20809;49.594;8.734;2023-03-31T14:50:02;6.25;;;1.15;;
34573;SDS011;20809;49.594;8.734;2023-03-31T14:53:21;2.05;;;0.47;;
34573;SDS011;20809;49.594;8.734;2023-03-31T14:56:26;4.45;;;1.27;;
34573;SDS011;20809;49.594;8.734;2023-03-31T14:59:35;4.43;;;0.70;;
34573;SDS011;20809;49.594;8.734;2023-03-31T15:02:39;3.78;;;0.95;;
34573;SDS011;20809;49.594;8.734;2023-03-31T15:05:42;3.90;;;1.00;;
34573;SDS011;20809;49.594;8.734;2023-03-31T15:08:44;4.82;;;0.70;;
34573;SDS011;20809;49.594;8.734;2023-03-31T15:11:46;2.22;;;0.55;;
34573;SDS011;20809;49.594;8.734;2023-03-31T15:15:02;2.97;;;0.70;;
34573;SDS011;20809;49.594;8.734;2023-03-31T15:18:05;2.67;;;0.70;;
34573;SDS011;20809;49.594;8.734;2023-03-31T15:21:08;2.45;;;1.08;;
34573;SDS011;20809;49.594;8.734;2023-03-31T15:24:18;3.35;;;0.80;;
34573;SDS011;20809;49.594;8.734;2023-03-31T15:27:33;4.05;;;0.80;;
34573;SDS011;20809;49.594;8.734;2023-03-31T15:30:40;4.10;;;1.45;;
34573;SDS011;20809;49.594;8.734;2023-03-31T15:33:42;7.00;;;1.45;;
34573;SDS011;20809;49.594;8.734;2023-03-31T15:36:43;5.25;;;1.00;;
34573;SDS011;20809;49.594;8.734;2023-03-31T15:39:44;5.53;;;1.33;;
34573;SDS011;20809;49.594;8.734;2023-03-31T15:42:48;8.35;;;1.90;;
34573;SDS011;20809;49.594;8.734;2023-03-31T15:46:00;7.72;;;1.77;;
34573;SDS011;20809;49.594;8.734;2023-03-31T15:49:05;8.85;;;1.38;;
34573;SDS011;20809;49.594;8.734;2023-03-31T15:52:26;6.13;;;1.80;;
34573;SDS011;20809;49.594;8.734;2023-03-31T15:55:39;4.28;;;2.35;;
34573;SDS011;20809;49.594;8.734;2023-03-31T15:58:52;4.63;;;1.23;;
34573;SDS011;20809;49.594;8.734;2023-03-31T16:01:55;5.53;;;1.45;;
34573;SDS011;20809;49.594;8.734;2023-03-31T16:04:58;4.40;;;1.70;;
34573;SDS011;20809;49.594;8.734;2023-03-31T16:08:00;4.60;;;0.90;;
34573;SDS011;20809;49.594;8.734;2023-03-31T16:11:04;3.97;;;0.85;;
34573;SDS011;20809;49.594;8.734;2023-03-31T16:14:14;3.78;;;1.67;;
34573;SDS011;20809;49.594;8.734;2023-03-31T16:17:25;5.82;;;1.30;;
34573;SDS011;20809;49.594;8.734;2023-03-31T16:20:36;3.97;;;0.73;;
34573;SDS011;20809;49.594;8.734;2023-03-31T16:23:48;4.32;;;0.80;;
34573;SDS011;20809;49.594;8.734;2023-03-31T16:27:02;5.18;;;1.50;;
34573;SDS011;20809;49.594;8.734;2023-03-31T16:30:07;9.63;;;1.42;;
34573;SDS011;20809;49.594;8.734;2023-03-31T16:33:18;6.28;;;1.00;;
34573;SDS011;20809;49.594;8.734;2023-03-31T16:36:22;3.50;;;1.13;;
34573;SDS011;20809;49.594;8.734;2023-03-31T16:39:23;4.97;;;0.80;;
34573;SDS011;20809;49.594;8.734;2023-03-31T16:42:24;1.63;;;0.85;;
34573;SDS011;20809;49.594;8.734;2023-03-31T16:45:26;4.38;;;0.95;;
34573;SDS011;20809;49.594;8.734;2023-03-31T16:48:27;6.13;;;1.08;;
34573;SDS011;20809;49.594;8.734;2023-03-31T16:51:29;5.05;;;1.00;;
34573;SDS011;20809;49.594;8.734;2023-03-31T16:54:30;5.57;;;1.73;;
34573;SDS011;20809;49.594;8.734;2023-03-31T16:57:31;6.20;;;1.52;;
34573;SDS011;20809;49.594;8.734;2023-03-31T17:00:32;9.15;;;1.85;;
34573;SDS011;20809;49.594;8.734;2023-03-31T17:03:35;6.63;;;0.80;;
34573;SDS011;20809;49.594;8.734;2023-03-31T17:06:38;3.88;;;0.98;;
34573;SDS011;20809;49.594;8.734;2023-03-31T17:09:39;5.20;;;1.63;;
34573;SDS011;20809;49.594;8.734;2023-03-31T17:12:40;5.45;;;0.85;;
34573;SDS011;20809;49.594;8.734;2023-03-31T17:15:41;4.40;;;0.93;;
34573;SDS011;20809;49.594;8.734;2023-03-31T17:18:43;8.02;;;0.90;;
34573;SDS011;20809;49.594;8.734;2023-03-31T17:24:44;3.20;;;0.63;;
34573;SDS011;20809;49.594;8.734;2023-03-31T17:27:45;5.47;;;1.85;;
34573;SDS011;20809;49.594;8.734;2023-03-31T17:30:50;2.88;;;0.80;;
34573;SDS011;20809;49.594;8.734;2023-03-31T17:33:51;2.60;;;0.80;;
34573;SDS011;20809;49.594;8.734;2023-03-31T17:36:52;3.33;;;0.63;;
34573;SDS011;20809;49.594;8.734;2023-03-31T17:39:54;4.03;;;1.25;;
34573;SDS011;20809;49.594;8.734;2023-03-31T17:42:56;3.45;;;0.80;;
34573;SDS011;20809;49.594;8.734;2023-03-31T17:46:04;2.17;;;0.55;;
34573;SDS011;20809;49.594;8.734;2023-03-31T17:49:06;2.05;;;0.30;;
34573;SDS011;20809;49.594;8.734;2023-03-31T17:52:07;2.10;;;0.47;;
34573;SDS011;20809;49.594;8.734;2023-03-31T17:55:08;3.22;;;1.08;;
34573;SDS011;20809;49.594;8.734;2023-03-31T17:58:09;2.08;;;0.68;;
34573;SDS011;20809;49.594;8.734;2023-03-31T18:01:13;0.50;;;0.30;;
34573;SDS011;20809;49.594;8.734;2023-03-31T18:04:17;1.38;;;0.43;;
34573;SDS011;20809;49.594;8.734;2023-03-31T18:07:18;2.92;;;0.30;;
34573;SDS011;20809;49.594;8.734;2023-03-31T18:10:22;2.33;;;0.45;;
34573;SDS011;20809;49.594;8.734;2023-03-31T18:13:23;1.00;;;0.40;;
34573;SDS011;20809;49.594;8.734;2023-03-31T18:16:24;3.22;;;0.52;;
34573;SDS011;20809;49.594;8.734;2023-03-31T18:19:25;2.38;;;0.40;;
34573;SDS011;20809;49.594;8.734;2023-03-31T18:22:25;5.13;;;0.60;;
34573;SDS011;20809;49.594;8.734;2023-03-31T18:25:27;3.10;;;0.50;;
34573;SDS011;20809;49.594;8.734;2023-03-31T18:28:28;3.25;;;0.70;;
34573;SDS011;20809;49.594;8.734;2023-03-31T18:31:29;2.13;;;0.50;;
34573;SDS011;20809;49.594;8.734;2023-03-31T18:34:29;4.75;;;0.60;;
34573;SDS011;20809;49.594;8.734;2023-03-31T18:37:32;5.80;;;0.90;;
34573;SDS011;20809;49.594;8.734;2023-03-31T18:40:32;1.50;;;0.50;;
34573;SDS011;20809;49.594;8.734;2023-03-31T18:43:33;2.10;;;0.45;;
34573;SDS011;20809;49.594;8.734;2023-03-31T18:46:34;1.77;;;0.40;;
34573;SDS011;20809;49.594;8.734;2023-03-31T18:49:35;4.63;;;0.70;;
34573;SDS011;20809;49.594;8.734;2023-03-31T18:52:35;4.13;;;1.50;;
34573;SDS011;20809;49.594;8.734;2023-03-31T18:55:36;5.35;;;1.80;;
34573;SDS011;20809;49.594;8.734;2023-03-31T18:58:37;4.28;;;1.08;;
34573;SDS011;20809;49.594;8.734;2023-03-31T19:01:38;2.72;;;0.70;;
34573;SDS011;20809;49.594;8.734;2023-03-31T19:04:39;3.28;;;0.60;;
34573;SDS011;20809;49.594;8.734;2023-03-31T19:07:40;6.03;;;1.50;;
34573;SDS011;20809;49.594;8.734;2023-03-31T19:10:41;3.00;;;0.85;;
34573;SDS011;20809;49.594;8.734;2023-03-31T19:13:42;2.88;;;0.60;;
34573;SDS011;20809;49.594;8.734;2023-03-31T19:16:43;6.35;;;0.80;;
34573;SDS011;20809;49.594;8.734;2023-03-31T19:19:44;3.08;;;0.63;;
34573;SDS011;20809;49.594;8.734;2023-03-31T19:22:46;3.80;;;0.65;;
34573;SDS011;20809;49.594;8.734;2023-03-31T19:25:52;3.33;;;0.95;;
34573;SDS011;20809;49.594;8.734;2023-03-31T19:28:55;1.33;;;0.52;;
34573;SDS011;20809;49.594;8.734;2023-03-31T19:31:56;2.97;;;0.57;;
34573;SDS011;20809;49.594;8.734;2023-03-31T19:34:57;1.65;;;0.55;;
34573;SDS011;20809;49.594;8.734;2023-03-31T19:37:59;1.67;;;0.50;;
34573;SDS011;20809;49.594;8.734;2023-03-31T19:41:00;0.95;;;0.50;;
34573;SDS011;20809;49.594;8.734;2023-03-31T19:44:01;2.28;;;0.77;;
34573;SDS011;20809;49.594;8.734;2023-03-31T19:47:02;1.48;;;0.55;;
34573;SDS011;20809;49.594;8.734;2023-03-31T19:50:02;4.75;;;2.25;;
34573;SDS011;20809;49.594;8.734;2023-03-31T19:53:03;2.70;;;0.47;;
34573;SDS011;20809;49.594;8.734;2023-03-31T19:56:06;3.25;;;0.80;;
34573;SDS011;20809;49.594;8.734;2023-03-31T19:59:11;2.17;;;0.40;;
34573;SDS011;20809;49.594;8.734;2023-03-31T20:02:12;3.08;;;0.70;;
34573;SDS011;20809;49.594;8.734;2023-03-31T20:05:13;1.60;;;0.60;;
34573;SDS011;20809;49.594;8.734;2023-03-31T20:08:14;3.67;;;1.00;;
34573;SDS011;20809;49.594;8.734;2023-03-31T20:11:15;3.65;;;1.35;;
34573;SDS011;20809;49.594;8.734;2023-03-31T20:14:16;3.53;;;0.70;;
34573;SDS011;20809;49.594;8.734;2023-03-31T20:17:20;5.53;;;0.95;;
34573;SDS011;20809;49.594;8.734;2023-03-31T20:20:20;2.67;;;0.60;;
34573;SDS011;20809;49.594;8.734;2023-03-31T20:23:21;5.30;;;0.80;;
34573;SDS011;20809;49.594;8.734;2023-03-31T20:26:23;6.82;;;2.05;;
34573;SDS011;20809;49.594;8.734;2023-03-31T20:29:25;3.53;;;1.45;;
34573;SDS011;20809;49.594;8.734;2023-03-31T20:32:27;4.13;;;1.00;;
34573;SDS011;20809;49.594;8.734;2023-03-31T20:35:28;2.78;;;0.70;;
34573;SDS011;20809;49.594;8.734;2023-03-31T20:38:29;2.10;;;0.47;;
34573;SDS011;20809;49.594;8.734;2023-03-31T20:41:29;2.10;;;0.50;;
34573;SDS011;20809;49.594;8.734;2023-03-31T20:44:31;2.83;;;0.65;;
34573;SDS011;20809;49.594;8.734;2023-03-31T20:47:31;1.10;;;0.60;;
34573;SDS011;20809;49.594;8.734;2023-03-31T20:50:34;3.97;;;1.10;;
34573;SDS011;20809;49.594;8.734;2023-03-31T20:53:37;1.50;;;0.70;;
34573;SDS011;20809;49.594;8.734;2023-03-31T20:56:40;2.15;;;0.57;;
34573;SDS011;20809;49.594;8.734;2023-03-31T20:59:41;2.55;;;0.75;;
34573;SDS011;20809;49.594;8.734;2023-03-31T21:02:42;3.63;;;0.90;;
34573;SDS011;20809;49.594;8.734;2023-03-31T21:05:44;0.75;;;0.45;;
34573;SDS011;20809;49.594;8.734;2023-03-31T21:08:49;2.97;;;0.60;;
34573;SDS011;20809;49.594;8.734;2023-03-31T21:11:51;2.30;;;0.63;;
34573;SDS011;20809;49.594;8.734;2023-03-31T21:14:52;3.70;;;0.60;;
34573;SDS011;20809;49.594;8.734;2023-03-31T21:17:53;2.78;;;0.70;;
34573;SDS011;20809;49.594;8.734;2023-03-31T21:20:55;5.78;;;0.60;;
34573;SDS011;20809;49.594;8.734;2023-03-31T21:24:01;2.15;;;0.60;;
34573;SDS011;20809;49.594;8.734;2023-03-31T21:27:01;6.45;;;1.23;;
34573;SDS011;20809;49.594;8.734;2023-03-31T21:30:02;3.22;;;0.47;;
34573;SDS011;20809;49.594;8.734;2023-03-31T21:33:03;3.88;;;0.75;;